Gilbert, Iowa
Current Conditions -  °F | °C
As of 8:53 PM on Tuesday 21 Oct 2014 (Local Time) from KAMW Reporting Station
Clear Clear  
Wind Chill: 50°   Ceiling: Unl
Heat Index: 50°   Visibility: 10mi
Dew Point: 40°   Wind: 5mph
Humidity: 68%   Direction: 130°SE
Pressure: 30.15"   Gusts: NA
Location:  42.11°N, 93.65°W
Report Text: KAMW 220153Z AUTO 13004KT 10SM CLR 10/04 A3015 RMK AO2 SLP212 T01000044
Loading
Personal Weather Stations






























Interactive Weather Map
Tropical Storm Tracking
New forecast layout! Learn more

10-Day Weather Forecast

Advertisements
Track Severe Weather on mobile